sensor_id;sensor_type;location;lat;lon;timestamp;P1;durP1;ratioP1;P2;durP2;ratioP2
71562;SDS011;59391;52.504;13.438;2022-12-29T00:00:02;5.80;;;4.00;;
71562;SDS011;59391;52.504;13.438;2022-12-29T00:02:30;7.38;;;3.92;;
71562;SDS011;59391;52.504;13.438;2022-12-29T00:04:56;6.53;;;4.60;;
71562;SDS011;59391;52.504;13.438;2022-12-29T00:07:21;6.93;;;4.03;;
71562;SDS011;59391;52.504;13.438;2022-12-29T00:09:47;7.73;;;4.43;;
71562;SDS011;59391;52.504;13.438;2022-12-29T00:12:13;8.70;;;4.45;;
71562;SDS011;59391;52.504;13.438;2022-12-29T00:14:39;7.40;;;4.50;;
71562;SDS011;59391;52.504;13.438;2022-12-29T00:17:23;6.55;;;4.35;;
71562;SDS011;59391;52.504;13.438;2022-12-29T00:19:49;6.40;;;3.97;;
71562;SDS011;59391;52.504;13.438;2022-12-29T00:22:50;6.47;;;3.97;;
71562;SDS011;59391;52.504;13.438;2022-12-29T00:25:43;7.20;;;3.73;;
71562;SDS011;59391;52.504;13.438;2022-12-29T00:28:27;6.68;;;3.63;;
71562;SDS011;59391;52.504;13.438;2022-12-29T00:31:12;6.90;;;3.97;;
71562;SDS011;59391;52.504;13.438;2022-12-29T00:33:56;5.78;;;3.50;;
71562;SDS011;59391;52.504;13.438;2022-12-29T00:36:40;4.68;;;3.20;;
71562;SDS011;59391;52.504;13.438;2022-12-29T00:39:09;6.47;;;3.78;;
71562;SDS011;59391;52.504;13.438;2022-12-29T00:42:07;7.03;;;3.90;;
71562;SDS011;59391;52.504;13.438;2022-12-29T00:44:53;6.10;;;3.10;;
71562;SDS011;59391;52.504;13.438;2022-12-29T00:47:18;7.53;;;4.55;;
71562;SDS011;59391;52.504;13.438;2022-12-29T00:49:44;7.13;;;3.93;;
71562;SDS011;59391;52.504;13.438;2022-12-29T00:52:12;7.13;;;3.47;;
71562;SDS011;59391;52.504;13.438;2022-12-29T00:54:39;7.60;;;4.00;;
71562;SDS011;59391;52.504;13.438;2022-12-29T00:57:06;8.10;;;3.60;;
71562;SDS011;59391;52.504;13.438;2022-12-29T00:59:34;6.40;;;3.45;;
71562;SDS011;59391;52.504;13.438;2022-12-29T01:02:01;5.93;;;3.53;;
71562;SDS011;59391;52.504;13.438;2022-12-29T01:04:26;4.13;;;2.60;;
71562;SDS011;59391;52.504;13.438;2022-12-29T01:06:52;5.20;;;2.95;;
71562;SDS011;59391;52.504;13.438;2022-12-29T01:09:19;5.13;;;2.90;;
71562;SDS011;59391;52.504;13.438;2022-12-29T01:12:04;5.43;;;3.30;;
71562;SDS011;59391;52.504;13.438;2022-12-29T01:14:32;7.93;;;4.20;;
71562;SDS011;59391;52.504;13.438;2022-12-29T01:16:58;5.80;;;3.90;;
71562;SDS011;59391;52.504;13.438;2022-12-29T01:19:25;6.50;;;3.70;;
71562;SDS011;59391;52.504;13.438;2022-12-29T01:21:51;5.20;;;3.20;;
71562;SDS011;59391;52.504;13.438;2022-12-29T01:24:17;5.32;;;2.90;;
71562;SDS011;59391;52.504;13.438;2022-12-29T01:26:45;5.47;;;3.35;;
71562;SDS011;59391;52.504;13.438;2022-12-29T01:29:11;7.10;;;3.47;;
71562;SDS011;59391;52.504;13.438;2022-12-29T01:31:37;6.38;;;3.22;;
71562;SDS011;59391;52.504;13.438;2022-12-29T01:34:03;7.72;;;4.07;;
71562;SDS011;59391;52.504;13.438;2022-12-29T01:36:29;5.70;;;2.95;;
71562;SDS011;59391;52.504;13.438;2022-12-29T01:38:55;6.33;;;3.33;;
71562;SDS011;59391;52.504;13.438;2022-12-29T01:41:21;7.22;;;4.13;;
71562;SDS011;59391;52.504;13.438;2022-12-29T01:43:54;5.82;;;2.83;;
71562;SDS011;59391;52.504;13.438;2022-12-29T01:46:38;5.97;;;3.45;;
71562;SDS011;59391;52.504;13.438;2022-12-29T01:49:11;5.67;;;3.37;;
71562;SDS011;59391;52.504;13.438;2022-12-29T01:51:45;5.65;;;3.70;;
71562;SDS011;59391;52.504;13.438;2022-12-29T01:54:22;4.63;;;2.90;;
71562;SDS011;59391;52.504;13.438;2022-12-29T01:56:53;6.75;;;3.85;;
71562;SDS011;59391;52.504;13.438;2022-12-29T01:59:25;4.85;;;3.30;;
71562;SDS011;59391;52.504;13.438;2022-12-29T02:01:59;6.47;;;3.93;;
71562;SDS011;59391;52.504;13.438;2022-12-29T02:04:26;5.57;;;3.00;;
71562;SDS011;59391;52.504;13.438;2022-12-29T02:06:58;8.07;;;4.40;;
71562;SDS011;59391;52.504;13.438;2022-12-29T02:09:29;8.73;;;4.43;;
71562;SDS011;59391;52.504;13.438;2022-12-29T02:11:55;7.38;;;3.72;;
71562;SDS011;59391;52.504;13.438;2022-12-29T02:14:23;6.53;;;3.57;;
71562;SDS011;59391;52.504;13.438;2022-12-29T02:22:46;8.07;;;4.03;;
71562;SDS011;59391;52.504;13.438;2022-12-29T02:28:43;5.25;;;3.53;;
71562;SDS011;59391;52.504;13.438;2022-12-29T02:34:09;15.30;;;6.95;;
71562;SDS011;59391;52.504;13.438;2022-12-29T02:37:00;16.87;;;7.30;;
71562;SDS011;59391;52.504;13.438;2022-12-29T02:42:47;9.32;;;4.57;;
71562;SDS011;59391;52.504;13.438;2022-12-29T02:49:01;21.10;;;8.25;;
71562;SDS011;59391;52.504;13.438;2022-12-29T02:51:50;13.50;;;6.10;;
71562;SDS011;59391;52.504;13.438;2022-12-29T02:54:26;14.43;;;6.20;;
71562;SDS011;59391;52.504;13.438;2022-12-29T02:57:14;18.98;;;8.63;;
71562;SDS011;59391;52.504;13.438;2022-12-29T03:00:14;20.75;;;8.52;;
71562;SDS011;59391;52.504;13.438;2022-12-29T03:09:14;6.47;;;3.58;;
71562;SDS011;59391;52.504;13.438;2022-12-29T03:12:22;5.72;;;3.45;;
71562;SDS011;59391;52.504;13.438;2022-12-29T03:15:28;14.38;;;6.57;;
71562;SDS011;59391;52.504;13.438;2022-12-29T03:18:33;13.75;;;7.20;;
71562;SDS011;59391;52.504;13.438;2022-12-29T03:24:14;12.05;;;5.85;;
71562;SDS011;59391;52.504;13.438;2022-12-29T03:26:43;11.38;;;6.25;;
71562;SDS011;59391;52.504;13.438;2022-12-29T03:29:11;21.15;;;9.45;;
71562;SDS011;59391;52.504;13.438;2022-12-29T03:31:40;10.40;;;5.30;;
71562;SDS011;59391;52.504;13.438;2022-12-29T03:34:07;10.93;;;5.50;;
71562;SDS011;59391;52.504;13.438;2022-12-29T03:36:46;7.75;;;3.72;;
71562;SDS011;59391;52.504;13.438;2022-12-29T03:39:20;7.50;;;4.13;;
71562;SDS011;59391;52.504;13.438;2022-12-29T03:41:48;9.57;;;4.82;;
71562;SDS011;59391;52.504;13.438;2022-12-29T03:44:31;9.10;;;4.75;;
71562;SDS011;59391;52.504;13.438;2022-12-29T03:47:00;5.70;;;3.67;;
71562;SDS011;59391;52.504;13.438;2022-12-29T03:49:25;9.93;;;5.30;;
71562;SDS011;59391;52.504;13.438;2022-12-29T03:51:51;7.77;;;4.40;;
71562;SDS011;59391;52.504;13.438;2022-12-29T03:54:16;6.95;;;4.32;;
71562;SDS011;59391;52.504;13.438;2022-12-29T03:56:42;6.00;;;4.07;;
71562;SDS011;59391;52.504;13.438;2022-12-29T03:59:08;6.93;;;4.53;;
71562;SDS011;59391;52.504;13.438;2022-12-29T04:01:33;6.65;;;4.15;;
71562;SDS011;59391;52.504;13.438;2022-12-29T04:03:59;9.38;;;4.72;;
71562;SDS011;59391;52.504;13.438;2022-12-29T04:06:25;10.77;;;6.05;;
71562;SDS011;59391;52.504;13.438;2022-12-29T04:08:50;5.07;;;3.10;;
71562;SDS011;59391;52.504;13.438;2022-12-29T04:11:16;5.55;;;3.70;;
71562;SDS011;59391;52.504;13.438;2022-12-29T04:13:41;5.13;;;3.30;;
71562;SDS011;59391;52.504;13.438;2022-12-29T04:16:07;6.00;;;3.30;;
71562;SDS011;59391;52.504;13.438;2022-12-29T04:18:33;5.22;;;2.60;;
71562;SDS011;59391;52.504;13.438;2022-12-29T04:20:59;5.47;;;2.85;;
71562;SDS011;59391;52.504;13.438;2022-12-29T04:23:25;4.43;;;2.90;;
71562;SDS011;59391;52.504;13.438;2022-12-29T04:25:52;4.30;;;3.10;;
71562;SDS011;59391;52.504;13.438;2022-12-29T04:28:18;5.43;;;3.00;;
71562;SDS011;59391;52.504;13.438;2022-12-29T04:30:44;4.37;;;2.80;;
71562;SDS011;59391;52.504;13.438;2022-12-29T04:33:10;4.15;;;2.40;;
71562;SDS011;59391;52.504;13.438;2022-12-29T04:35:36;4.70;;;2.95;;
71562;SDS011;59391;52.504;13.438;2022-12-29T04:38:02;6.38;;;2.90;;
71562;SDS011;59391;52.504;13.438;2022-12-29T04:40:28;4.57;;;3.08;;
71562;SDS011;59391;52.504;13.438;2022-12-29T04:42:54;4.90;;;2.77;;
71562;SDS011;59391;52.504;13.438;2022-12-29T04:45:19;6.80;;;3.33;;
71562;SDS011;59391;52.504;13.438;2022-12-29T04:47:45;4.90;;;3.05;;
71562;SDS011;59391;52.504;13.438;2022-12-29T04:50:11;5.43;;;3.00;;
71562;SDS011;59391;52.504;13.438;2022-12-29T04:52:36;4.95;;;2.35;;
71562;SDS011;59391;52.504;13.438;2022-12-29T04:55:02;4.72;;;2.80;;
71562;SDS011;59391;52.504;13.438;2022-12-29T04:57:29;4.45;;;2.90;;
71562;SDS011;59391;52.504;13.438;2022-12-29T04:59:55;5.57;;;2.83;;
71562;SDS011;59391;52.504;13.438;2022-12-29T05:02:20;5.05;;;2.50;;
71562;SDS011;59391;52.504;13.438;2022-12-29T05:04:46;5.32;;;3.40;;
71562;SDS011;59391;52.504;13.438;2022-12-29T05:07:12;5.45;;;3.00;;
71562;SDS011;59391;52.504;13.438;2022-12-29T05:09:38;5.23;;;2.70;;
71562;SDS011;59391;52.504;13.438;2022-12-29T05:12:03;5.40;;;2.78;;
71562;SDS011;59391;52.504;13.438;2022-12-29T05:14:30;4.78;;;2.90;;
71562;SDS011;59391;52.504;13.438;2022-12-29T05:16:55;4.95;;;2.95;;
71562;SDS011;59391;52.504;13.438;2022-12-29T05:19:21;4.63;;;2.50;;
71562;SDS011;59391;52.504;13.438;2022-12-29T05:21:47;4.07;;;2.53;;
71562;SDS011;59391;52.504;13.438;2022-12-29T05:24:12;5.53;;;2.87;;
71562;SDS011;59391;52.504;13.438;2022-12-29T05:26:38;4.88;;;2.45;;
71562;SDS011;59391;52.504;13.438;2022-12-29T05:29:04;5.23;;;2.80;;
71562;SDS011;59391;52.504;13.438;2022-12-29T05:31:29;4.83;;;2.83;;
71562;SDS011;59391;52.504;13.438;2022-12-29T05:33:56;5.47;;;3.22;;
71562;SDS011;59391;52.504;13.438;2022-12-29T05:36:21;4.45;;;2.60;;
71562;SDS011;59391;52.504;13.438;2022-12-29T05:38:47;4.80;;;2.43;;
71562;SDS011;59391;52.504;13.438;2022-12-29T05:41:12;6.93;;;3.27;;
71562;SDS011;59391;52.504;13.438;2022-12-29T05:43:38;5.93;;;3.00;;
71562;SDS011;59391;52.504;13.438;2022-12-29T05:46:04;5.17;;;2.67;;
71562;SDS011;59391;52.504;13.438;2022-12-29T05:48:30;4.72;;;2.92;;
71562;SDS011;59391;52.504;13.438;2022-12-29T05:50:55;5.63;;;2.80;;
71562;SDS011;59391;52.504;13.438;2022-12-29T05:53:21;4.68;;;3.00;;
71562;SDS011;59391;52.504;13.438;2022-12-29T05:55:47;4.78;;;2.95;;
71562;SDS011;59391;52.504;13.438;2022-12-29T05:58:14;6.07;;;2.70;;
71562;SDS011;59391;52.504;13.438;2022-12-29T06:00:41;5.82;;;2.90;;
71562;SDS011;59391;52.504;13.438;2022-12-29T06:03:07;5.13;;;3.05;;
71562;SDS011;59391;52.504;13.438;2022-12-29T06:05:33;5.33;;;3.23;;
71562;SDS011;59391;52.504;13.438;2022-12-29T06:07:59;4.47;;;2.65;;
71562;SDS011;59391;52.504;13.438;2022-12-29T06:10:24;5.33;;;2.70;;
71562;SDS011;59391;52.504;13.438;2022-12-29T06:12:50;5.25;;;2.92;;
71562;SDS011;59391;52.504;13.438;2022-12-29T06:15:16;3.90;;;1.87;;
71562;SDS011;59391;52.504;13.438;2022-12-29T06:17:42;4.82;;;2.58;;
71562;SDS011;59391;52.504;13.438;2022-12-29T06:20:09;4.70;;;3.28;;
71562;SDS011;59391;52.504;13.438;2022-12-29T06:22:36;4.63;;;2.78;;
71562;SDS011;59391;52.504;13.438;2022-12-29T06:25:02;6.05;;;2.88;;
71562;SDS011;59391;52.504;13.438;2022-12-29T06:27:28;5.90;;;2.70;;
71562;SDS011;59391;52.504;13.438;2022-12-29T06:29:54;5.35;;;2.85;;
71562;SDS011;59391;52.504;13.438;2022-12-29T06:32:19;4.90;;;2.70;;
71562;SDS011;59391;52.504;13.438;2022-12-29T06:34:45;5.82;;;3.20;;
71562;SDS011;59391;52.504;13.438;2022-12-29T06:37:11;5.13;;;2.53;;
71562;SDS011;59391;52.504;13.438;2022-12-29T06:39:38;4.23;;;2.63;;
71562;SDS011;59391;52.504;13.438;2022-12-29T06:42:03;4.30;;;2.67;;
71562;SDS011;59391;52.504;13.438;2022-12-29T06:44:29;4.10;;;2.60;;
71562;SDS011;59391;52.504;13.438;2022-12-29T06:46:55;5.18;;;3.33;;
71562;SDS011;59391;52.504;13.438;2022-12-29T06:49:23;3.85;;;2.47;;
71562;SDS011;59391;52.504;13.438;2022-12-29T06:51:49;5.13;;;3.30;;
71562;SDS011;59391;52.504;13.438;2022-12-29T06:54:14;4.90;;;2.97;;
71562;SDS011;59391;52.504;13.438;2022-12-29T06:56:40;4.55;;;2.38;;
71562;SDS011;59391;52.504;13.438;2022-12-29T06:59:06;5.23;;;2.47;;
71562;SDS011;59391;52.504;13.438;2022-12-29T07:01:31;4.82;;;3.38;;
71562;SDS011;59391;52.504;13.438;2022-12-29T07:03:57;4.90;;;3.10;;
71562;SDS011;59391;52.504;13.438;2022-12-29T07:06:23;4.00;;;2.20;;
71562;SDS011;59391;52.504;13.438;2022-12-29T07:08:48;3.90;;;2.73;;
71562;SDS011;59391;52.504;13.438;2022-12-29T07:11:14;4.20;;;2.60;;
71562;SDS011;59391;52.504;13.438;2022-12-29T07:13:40;4.45;;;2.50;;
71562;SDS011;59391;52.504;13.438;2022-12-29T07:16:06;6.40;;;2.45;;
71562;SDS011;59391;52.504;13.438;2022-12-29T07:18:34;4.70;;;3.15;;
71562;SDS011;59391;52.504;13.438;2022-12-29T07:21:00;3.65;;;2.17;;
71562;SDS011;59391;52.504;13.438;2022-12-29T07:23:26;4.63;;;3.10;;
71562;SDS011;59391;52.504;13.438;2022-12-29T07:26:03;3.33;;;1.83;;
71562;SDS011;59391;52.504;13.438;2022-12-29T07:28:34;4.53;;;2.85;;
71562;SDS011;59391;52.504;13.438;2022-12-29T07:31:01;4.47;;;2.72;;
71562;SDS011;59391;52.504;13.438;2022-12-29T07:33:29;4.50;;;2.83;;
71562;SDS011;59391;52.504;13.438;2022-12-29T07:35:59;5.00;;;2.60;;
71562;SDS011;59391;52.504;13.438;2022-12-29T07:38:28;4.78;;;2.55;;
71562;SDS011;59391;52.504;13.438;2022-12-29T07:40:56;4.03;;;2.22;;
71562;SDS011;59391;52.504;13.438;2022-12-29T07:43:23;4.10;;;2.63;;
71562;SDS011;59391;52.504;13.438;2022-12-29T07:45:48;4.10;;;2.55;;
71562;SDS011;59391;52.504;13.438;2022-12-29T07:48:14;4.30;;;2.60;;
71562;SDS011;59391;52.504;13.438;2022-12-29T07:50:43;4.50;;;2.60;;
71562;SDS011;59391;52.504;13.438;2022-12-29T07:53:08;5.05;;;3.25;;
71562;SDS011;59391;52.504;13.438;2022-12-29T07:55:34;4.63;;;2.80;;
71562;SDS011;59391;52.504;13.438;2022-12-29T07:58:02;4.60;;;2.72;;
71562;SDS011;59391;52.504;13.438;2022-12-29T08:00:28;5.15;;;2.83;;
71562;SDS011;59391;52.504;13.438;2022-12-29T08:02:54;4.18;;;2.70;;
71562;SDS011;59391;52.504;13.438;2022-12-29T08:05:20;4.47;;;2.27;;
71562;SDS011;59391;52.504;13.438;2022-12-29T08:07:47;4.50;;;3.20;;
71562;SDS011;59391;52.504;13.438;2022-12-29T08:10:18;5.93;;;3.10;;
71562;SDS011;59391;52.504;13.438;2022-12-29T08:12:44;4.50;;;2.50;;
71562;SDS011;59391;52.504;13.438;2022-12-29T08:15:10;4.05;;;2.33;;
71562;SDS011;59391;52.504;13.438;2022-12-29T08:17:37;4.68;;;2.63;;
71562;SDS011;59391;52.504;13.438;2022-12-29T08:20:03;4.38;;;2.75;;
71562;SDS011;59391;52.504;13.438;2022-12-29T08:22:29;4.70;;;2.80;;
71562;SDS011;59391;52.504;13.438;2022-12-29T08:24:58;4.68;;;2.85;;
71562;SDS011;59391;52.504;13.438;2022-12-29T08:27:24;5.30;;;3.37;;
71562;SDS011;59391;52.504;13.438;2022-12-29T08:29:51;5.00;;;2.75;;
71562;SDS011;59391;52.504;13.438;2022-12-29T08:32:17;8.90;;;4.53;;
71562;SDS011;59391;52.504;13.438;2022-12-29T08:34:42;4.75;;;3.10;;
71562;SDS011;59391;52.504;13.438;2022-12-29T08:37:11;8.02;;;5.35;;
71562;SDS011;59391;52.504;13.438;2022-12-29T08:39:37;5.97;;;3.58;;
71562;SDS011;59391;52.504;13.438;2022-12-29T08:42:06;6.63;;;4.13;;
71562;SDS011;59391;52.504;13.438;2022-12-29T08:44:31;8.35;;;3.53;;
71562;SDS011;59391;52.504;13.438;2022-12-29T08:47:00;4.60;;;3.00;;
71562;SDS011;59391;52.504;13.438;2022-12-29T08:49:25;6.00;;;3.30;;
71562;SDS011;59391;52.504;13.438;2022-12-29T08:51:51;4.30;;;2.77;;
71562;SDS011;59391;52.504;13.438;2022-12-29T08:54:17;6.28;;;3.20;;
71562;SDS011;59391;52.504;13.438;2022-12-29T08:56:42;4.68;;;2.92;;
71562;SDS011;59391;52.504;13.438;2022-12-29T08:59:08;4.63;;;3.03;;
71562;SDS011;59391;52.504;13.438;2022-12-29T09:01:34;4.93;;;3.37;;
71562;SDS011;59391;52.504;13.438;2022-12-29T09:04:08;4.93;;;2.80;;
71562;SDS011;59391;52.504;13.438;2022-12-29T09:06:34;4.90;;;3.03;;
71562;SDS011;59391;52.504;13.438;2022-12-29T09:09:03;4.45;;;2.78;;
71562;SDS011;59391;52.504;13.438;2022-12-29T09:11:50;5.73;;;3.00;;
71562;SDS011;59391;52.504;13.438;2022-12-29T09:14:15;5.28;;;3.20;;
71562;SDS011;59391;52.504;13.438;2022-12-29T09:16:53;5.78;;;3.65;;
71562;SDS011;59391;52.504;13.438;2022-12-29T09:19:38;3.90;;;2.50;;
71562;SDS011;59391;52.504;13.438;2022-12-29T09:22:04;4.70;;;2.70;;
71562;SDS011;59391;52.504;13.438;2022-12-29T09:24:29;6.70;;;2.65;;
71562;SDS011;59391;52.504;13.438;2022-12-29T09:26:55;6.07;;;2.77;;
71562;SDS011;59391;52.504;13.438;2022-12-29T09:29:21;4.38;;;2.65;;
71562;SDS011;59391;52.504;13.438;2022-12-29T09:31:47;5.63;;;3.20;;
71562;SDS011;59391;52.504;13.438;2022-12-29T09:34:12;5.57;;;2.85;;
71562;SDS011;59391;52.504;13.438;2022-12-29T09:36:38;5.47;;;2.80;;
71562;SDS011;59391;52.504;13.438;2022-12-29T09:39:04;6.25;;;3.00;;
71562;SDS011;59391;52.504;13.438;2022-12-29T09:41:32;5.10;;;3.27;;
71562;SDS011;59391;52.504;13.438;2022-12-29T09:44:20;4.90;;;3.00;;
71562;SDS011;59391;52.504;13.438;2022-12-29T09:46:56;6.45;;;3.30;;
71562;SDS011;59391;52.504;13.438;2022-12-29T09:52:15;4.85;;;3.03;;
71562;SDS011;59391;52.504;13.438;2022-12-29T09:54:48;5.07;;;2.95;;
71562;SDS011;59391;52.504;13.438;2022-12-29T09:57:38;6.68;;;2.70;;
71562;SDS011;59391;52.504;13.438;2022-12-29T10:03:17;3.92;;;2.47;;
71562;SDS011;59391;52.504;13.438;2022-12-29T10:05:48;4.70;;;2.83;;
71562;SDS011;59391;52.504;13.438;2022-12-29T10:08:31;3.88;;;2.05;;
71562;SDS011;59391;52.504;13.438;2022-12-29T10:17:11;5.13;;;3.03;;
71562;SDS011;59391;52.504;13.438;2022-12-29T10:19:53;4.85;;;2.70;;
71562;SDS011;59391;52.504;13.438;2022-12-29T10:23:02;7.68;;;4.45;;
71562;SDS011;59391;52.504;13.438;2022-12-29T10:25:55;5.85;;;3.20;;
71562;SDS011;59391;52.504;13.438;2022-12-29T10:31:22;6.18;;;3.40;;
71562;SDS011;59391;52.504;13.438;2022-12-29T10:33:51;6.88;;;3.75;;
71562;SDS011;59391;52.504;13.438;2022-12-29T10:36:27;7.78;;;3.72;;
71562;SDS011;59391;52.504;13.438;2022-12-29T10:44:35;3.88;;;2.40;;
71562;SDS011;59391;52.504;13.438;2022-12-29T10:47:02;3.88;;;2.40;;
71562;SDS011;59391;52.504;13.438;2022-12-29T10:49:37;5.93;;;3.05;;
71562;SDS011;59391;52.504;13.438;2022-12-29T10:52:07;4.03;;;2.13;;
71562;SDS011;59391;52.504;13.438;2022-12-29T10:57:21;5.67;;;2.10;;
71562;SDS011;59391;52.504;13.438;2022-12-29T10:59:51;5.32;;;2.40;;
71562;SDS011;59391;52.504;13.438;2022-12-29T11:02:23;4.47;;;2.60;;
71562;SDS011;59391;52.504;13.438;2022-12-29T11:05:36;5.63;;;2.63;;
71562;SDS011;59391;52.504;13.438;2022-12-29T11:08:04;4.93;;;2.28;;
71562;SDS011;59391;52.504;13.438;2022-12-29T11:10:37;4.88;;;3.28;;
71562;SDS011;59391;52.504;13.438;2022-12-29T11:15:47;4.47;;;2.38;;
71562;SDS011;59391;52.504;13.438;2022-12-29T11:20:57;3.90;;;2.22;;
71562;SDS011;59391;52.504;13.438;2022-12-29T11:23:30;4.13;;;2.63;;
71562;SDS011;59391;52.504;13.438;2022-12-29T11:26:19;5.43;;;2.83;;
71562;SDS011;59391;52.504;13.438;2022-12-29T11:29:03;7.43;;;3.15;;
71562;SDS011;59391;52.504;13.438;2022-12-29T11:31:47;7.10;;;3.27;;
71562;SDS011;59391;52.504;13.438;2022-12-29T11:34:31;5.60;;;2.72;;
71562;SDS011;59391;52.504;13.438;2022-12-29T11:37:42;6.95;;;3.70;;
71562;SDS011;59391;52.504;13.438;2022-12-29T11:40:15;4.97;;;2.58;;
71562;SDS011;59391;52.504;13.438;2022-12-29T11:42:48;4.20;;;2.55;;
71562;SDS011;59391;52.504;13.438;2022-12-29T11:45:19;4.40;;;2.57;;
71562;SDS011;59391;52.504;13.438;2022-12-29T11:47:50;5.85;;;2.88;;
71562;SDS011;59391;52.504;13.438;2022-12-29T11:50:24;7.28;;;4.82;;
71562;SDS011;59391;52.504;13.438;2022-12-29T11:53:15;6.47;;;2.78;;
71562;SDS011;59391;52.504;13.438;2022-12-29T11:56:30;4.57;;;2.15;;
71562;SDS011;59391;52.504;13.438;2022-12-29T12:02:03;3.45;;;1.98;;
71562;SDS011;59391;52.504;13.438;2022-12-29T12:04:51;3.67;;;2.20;;
71562;SDS011;59391;52.504;13.438;2022-12-29T12:07:45;3.95;;;2.42;;
71562;SDS011;59391;52.504;13.438;2022-12-29T12:10:21;4.35;;;2.55;;
71562;SDS011;59391;52.504;13.438;2022-12-29T12:16:08;4.38;;;2.28;;
71562;SDS011;59391;52.504;13.438;2022-12-29T12:18:41;6.78;;;2.60;;
71562;SDS011;59391;52.504;13.438;2022-12-29T12:21:20;4.35;;;2.58;;
71562;SDS011;59391;52.504;13.438;2022-12-29T12:27:16;5.20;;;2.47;;
71562;SDS011;59391;52.504;13.438;2022-12-29T12:32:58;7.13;;;4.68;;
71562;SDS011;59391;52.504;13.438;2022-12-29T12:35:47;6.32;;;3.30;;
71562;SDS011;59391;52.504;13.438;2022-12-29T12:44:47;3.88;;;2.58;;
71562;SDS011;59391;52.504;13.438;2022-12-29T12:47:55;6.22;;;3.33;;
71562;SDS011;59391;52.504;13.438;2022-12-29T12:50:44;8.00;;;3.90;;
71562;SDS011;59391;52.504;13.438;2022-12-29T12:59:04;6.90;;;3.20;;
71562;SDS011;59391;52.504;13.438;2022-12-29T13:08:34;5.45;;;2.80;;
71562;SDS011;59391;52.504;13.438;2022-12-29T13:11:36;3.77;;;2.00;;
71562;SDS011;59391;52.504;13.438;2022-12-29T13:14:38;5.68;;;3.40;;
71562;SDS011;59391;52.504;13.438;2022-12-29T13:17:54;5.70;;;2.83;;
71562;SDS011;59391;52.504;13.438;2022-12-29T13:20:38;6.35;;;3.03;;
71562;SDS011;59391;52.504;13.438;2022-12-29T13:23:24;12.35;;;4.80;;
71562;SDS011;59391;52.504;13.438;2022-12-29T13:29:15;4.25;;;2.53;;
71562;SDS011;59391;52.504;13.438;2022-12-29T13:38:32;5.63;;;2.80;;
71562;SDS011;59391;52.504;13.438;2022-12-29T13:41:10;5.03;;;3.07;;
71562;SDS011;59391;52.504;13.438;2022-12-29T13:43:43;5.70;;;2.40;;
71562;SDS011;59391;52.504;13.438;2022-12-29T13:46:15;5.93;;;2.92;;
71562;SDS011;59391;52.504;13.438;2022-12-29T13:48:55;5.47;;;2.95;;
71562;SDS011;59391;52.504;13.438;2022-12-29T13:51:29;4.43;;;2.38;;
71562;SDS011;59391;52.504;13.438;2022-12-29T13:54:03;4.33;;;2.53;;
71562;SDS011;59391;52.504;13.438;2022-12-29T14:00:12;5.10;;;3.10;;
71562;SDS011;59391;52.504;13.438;2022-12-29T14:07:43;5.60;;;3.20;;
71562;SDS011;59391;52.504;13.438;2022-12-29T14:10:27;7.28;;;4.25;;
71562;SDS011;59391;52.504;13.438;2022-12-29T14:13:16;5.25;;;2.70;;
71562;SDS011;59391;52.504;13.438;2022-12-29T14:15:56;7.25;;;3.40;;
71562;SDS011;59391;52.504;13.438;2022-12-29T14:18:24;5.93;;;3.40;;
71562;SDS011;59391;52.504;13.438;2022-12-29T14:23:41;6.50;;;3.53;;
71562;SDS011;59391;52.504;13.438;2022-12-29T14:26:11;5.93;;;3.20;;
71562;SDS011;59391;52.504;13.438;2022-12-29T14:28:55;8.45;;;3.55;;
71562;SDS011;59391;52.504;13.438;2022-12-29T14:36:35;6.25;;;3.30;;
71562;SDS011;59391;52.504;13.438;2022-12-29T14:39:30;6.53;;;3.65;;
71562;SDS011;59391;52.504;13.438;2022-12-29T14:44:51;7.28;;;4.03;;
71562;SDS011;59391;52.504;13.438;2022-12-29T14:47:49;7.53;;;3.83;;
71562;SDS011;59391;52.504;13.438;2022-12-29T14:50:22;5.72;;;3.60;;
71562;SDS011;59391;52.504;13.438;2022-12-29T14:53:04;7.40;;;3.80;;
71562;SDS011;59391;52.504;13.438;2022-12-29T14:55:41;8.20;;;4.00;;
71562;SDS011;59391;52.504;13.438;2022-12-29T14:58:20;6.47;;;3.80;;
71562;SDS011;59391;52.504;13.438;2022-12-29T15:00:53;9.75;;;4.35;;
71562;SDS011;59391;52.504;13.438;2022-12-29T15:08:38;6.40;;;3.92;;
71562;SDS011;59391;52.504;13.438;2022-12-29T15:11:24;7.93;;;4.25;;
71562;SDS011;59391;52.504;13.438;2022-12-29T15:17:21;7.30;;;4.00;;
71562;SDS011;59391;52.504;13.438;2022-12-29T15:19:58;8.30;;;4.90;;
71562;SDS011;59391;52.504;13.438;2022-12-29T15:22:55;8.63;;;5.15;;
71562;SDS011;59391;52.504;13.438;2022-12-29T15:26:35;8.35;;;4.78;;
71562;SDS011;59391;52.504;13.438;2022-12-29T15:34:19;10.50;;;5.38;;
71562;SDS011;59391;52.504;13.438;2022-12-29T15:37:41;12.18;;;5.90;;
71562;SDS011;59391;52.504;13.438;2022-12-29T15:45:33;11.15;;;5.35;;
71562;SDS011;59391;52.504;13.438;2022-12-29T15:48:17;8.82;;;4.60;;
71562;SDS011;59391;52.504;13.438;2022-12-29T15:50:58;11.52;;;5.00;;
71562;SDS011;59391;52.504;13.438;2022-12-29T15:53:58;13.88;;;7.50;;
71562;SDS011;59391;52.504;13.438;2022-12-29T15:57:09;12.85;;;6.10;;
71562;SDS011;59391;52.504;13.438;2022-12-29T16:00:30;7.25;;;4.60;;
71562;SDS011;59391;52.504;13.438;2022-12-29T16:03:04;6.63;;;3.60;;
71562;SDS011;59391;52.504;13.438;2022-12-29T16:05:40;8.32;;;4.70;;
71562;SDS011;59391;52.504;13.438;2022-12-29T16:08:23;7.88;;;4.20;;
71562;SDS011;59391;52.504;13.438;2022-12-29T16:10:54;9.10;;;5.20;;
71562;SDS011;59391;52.504;13.438;2022-12-29T16:13:28;8.18;;;5.10;;
71562;SDS011;59391;52.504;13.438;2022-12-29T16:16:13;6.53;;;4.30;;
71562;SDS011;59391;52.504;13.438;2022-12-29T16:18:49;8.45;;;4.70;;
71562;SDS011;59391;52.504;13.438;2022-12-29T16:21:19;13.90;;;8.30;;
71562;SDS011;59391;52.504;13.438;2022-12-29T16:23:51;25.88;;;15.30;;
71562;SDS011;59391;52.504;13.438;2022-12-29T16:26:21;16.88;;;9.80;;
71562;SDS011;59391;52.504;13.438;2022-12-29T16:28:54;8.40;;;4.60;;
71562;SDS011;59391;52.504;13.438;2022-12-29T16:34:35;5.15;;;2.85;;
71562;SDS011;59391;52.504;13.438;2022-12-29T16:43:02;6.63;;;3.25;;
71562;SDS011;59391;52.504;13.438;2022-12-29T16:50:39;6.07;;;3.47;;
71562;SDS011;59391;52.504;13.438;2022-12-29T16:53:21;5.97;;;3.72;;
71562;SDS011;59391;52.504;13.438;2022-12-29T16:55:56;6.32;;;3.38;;
71562;SDS011;59391;52.504;13.438;2022-12-29T16:58:28;9.40;;;4.50;;
71562;SDS011;59391;52.504;13.438;2022-12-29T17:00:56;10.70;;;4.50;;
71562;SDS011;59391;52.504;13.438;2022-12-29T17:03:32;12.65;;;6.00;;
71562;SDS011;59391;52.504;13.438;2022-12-29T17:06:03;14.52;;;6.53;;
71562;SDS011;59391;52.504;13.438;2022-12-29T17:08:37;9.10;;;3.88;;
71562;SDS011;59391;52.504;13.438;2022-12-29T17:11:08;12.13;;;5.30;;
71562;SDS011;59391;52.504;13.438;2022-12-29T17:14:09;9.35;;;4.45;;
71562;SDS011;59391;52.504;13.438;2022-12-29T17:17:11;9.95;;;4.63;;
71562;SDS011;59391;52.504;13.438;2022-12-29T17:19:41;5.68;;;3.20;;
71562;SDS011;59391;52.504;13.438;2022-12-29T17:22:12;8.43;;;4.57;;
71562;SDS011;59391;52.504;13.438;2022-12-29T17:24:51;9.00;;;3.73;;
71562;SDS011;59391;52.504;13.438;2022-12-29T17:27:28;8.45;;;3.97;;
71562;SDS011;59391;52.504;13.438;2022-12-29T17:30:04;8.60;;;4.20;;
71562;SDS011;59391;52.504;13.438;2022-12-29T17:32:43;6.25;;;3.55;;
71562;SDS011;59391;52.504;13.438;2022-12-29T17:35:26;11.52;;;4.20;;
71562;SDS011;59391;52.504;13.438;2022-12-29T17:37:52;11.07;;;4.70;;
71562;SDS011;59391;52.504;13.438;2022-12-29T17:40:23;13.07;;;5.75;;